sensor_id;sensor_type;location;lat;lon;timestamp;temperature;humidity
54884;DHT22;40776;52.880;6.016;2022-07-19T06:20:05;22.90;99.90
54884;DHT22;40776;52.880;6.016;2022-07-19T06:46:53;24.20;99.90
54884;DHT22;40776;52.880;6.016;2022-07-19T06:49:19;24.50;99.90
54884;DHT22;40776;52.880;6.016;2022-07-19T06:54:10;25.10;99.90
54884;DHT22;40776;52.880;6.016;2022-07-19T06:59:02;25.30;99.90
54884;DHT22;40776;52.880;6.016;2022-07-19T07:01:28;25.60;99.90
54884;DHT22;40776;52.880;6.016;2022-07-19T07:03:53;25.70;99.90
54884;DHT22;40776;52.880;6.016;2022-07-19T07:06:19;25.80;99.90
54884;DHT22;40776;52.880;6.016;2022-07-19T07:08:45;26.00;99.90
54884;DHT22;40776;52.880;6.016;2022-07-19T07:11:10;25.90;99.90
54884;DHT22;40776;52.880;6.016;2022-07-19T07:13:36;26.10;99.90
54884;DHT22;40776;52.880;6.016;2022-07-19T07:16:02;26.20;99.90
54884;DHT22;40776;52.880;6.016;2022-07-19T07:18:27;26.50;99.90
54884;DHT22;40776;52.880;6.016;2022-07-19T07:20:53;26.30;99.90
54884;DHT22;40776;52.880;6.016;2022-07-19T07:23:19;26.50;99.90
54884;DHT22;40776;52.880;6.016;2022-07-19T07:25:45;26.50;99.90
54884;DHT22;40776;52.880;6.016;2022-07-19T07:28:10;26.70;99.90
54884;DHT22;40776;52.880;6.016;2022-07-19T07:30:36;27.00;99.90
54884;DHT22;40776;52.880;6.016;2022-07-19T07:33:02;27.10;99.90
54884;DHT22;40776;52.880;6.016;2022-07-19T07:35:27;27.20;99.90
54884;DHT22;40776;52.880;6.016;2022-07-19T07:37:53;27.40;99.90
54884;DHT22;40776;52.880;6.016;2022-07-19T07:40:18;28.30;99.90
54884;DHT22;40776;52.880;6.016;2022-07-19T07:42:44;28.00;99.90
54884;DHT22;40776;52.880;6.016;2022-07-19T07:45:10;28.00;99.90
54884;DHT22;40776;52.880;6.016;2022-07-19T07:47:36;28.20;99.90
54884;DHT22;40776;52.880;6.016;2022-07-19T07:50:04;28.20;99.90
54884;DHT22;40776;52.880;6.016;2022-07-19T07:52:30;28.00;99.90
54884;DHT22;40776;52.880;6.016;2022-07-19T07:54:55;29.00;99.90
54884;DHT22;40776;52.880;6.016;2022-07-19T07:57:21;28.30;99.90
54884;DHT22;40776;52.880;6.016;2022-07-19T07:59:46;28.70;99.90
54884;DHT22;40776;52.880;6.016;2022-07-19T08:02:12;28.70;99.90
54884;DHT22;40776;52.880;6.016;2022-07-19T08:04:37;28.50;99.90
54884;DHT22;40776;52.880;6.016;2022-07-19T08:07:03;28.60;99.90
54884;DHT22;40776;52.880;6.016;2022-07-19T08:09:28;28.90;99.90
54884;DHT22;40776;52.880;6.016;2022-07-19T08:11:54;29.10;99.90
54884;DHT22;40776;52.880;6.016;2022-07-19T08:14:21;30.30;99.90
54884;DHT22;40776;52.880;6.016;2022-07-19T08:16:47;30.80;99.90
54884;DHT22;40776;52.880;6.016;2022-07-19T08:19:12;29.80;99.90
54884;DHT22;40776;52.880;6.016;2022-07-19T08:21:38;30.10;99.70
54884;DHT22;40776;52.880;6.016;2022-07-19T08:24:04;30.10;99.20
54884;DHT22;40776;52.880;6.016;2022-07-19T08:26:30;30.00;98.20
54884;DHT22;40776;52.880;6.016;2022-07-19T08:28:57;30.20;98.00
54884;DHT22;40776;52.880;6.016;2022-07-19T08:31:22;30.60;97.30
54884;DHT22;40776;52.880;6.016;2022-07-19T08:33:48;31.20;97.40
54884;DHT22;40776;52.880;6.016;2022-07-19T08:36:13;30.60;97.30
54884;DHT22;40776;52.880;6.016;2022-07-19T08:38:40;31.40;97.10
54884;DHT22;40776;52.880;6.016;2022-07-19T08:41:06;30.60;96.90
54884;DHT22;40776;52.880;6.016;2022-07-19T08:43:32;32.10;97.50
54884;DHT22;40776;52.880;6.016;2022-07-19T08:46:03;31.40;96.40
54884;DHT22;40776;52.880;6.016;2022-07-19T08:48:33;31.20;95.40
54884;DHT22;40776;52.880;6.016;2022-07-19T08:51:01;32.30;96.20
54884;DHT22;40776;52.880;6.016;2022-07-19T08:53:30;31.40;95.50
54884;DHT22;40776;52.880;6.016;2022-07-19T08:55:57;31.20;95.60
54884;DHT22;40776;52.880;6.016;2022-07-19T08:58:23;31.30;96.10
54884;DHT22;40776;52.880;6.016;2022-07-19T09:00:48;31.60;96.00
54884;DHT22;40776;52.880;6.016;2022-07-19T09:03:15;31.70;96.30
54884;DHT22;40776;52.880;6.016;2022-07-19T09:05:41;32.90;95.90
54884;DHT22;40776;52.880;6.016;2022-07-19T09:08:15;33.30;95.60
54884;DHT22;40776;52.880;6.016;2022-07-19T09:10:47;32.20;94.50
54884;DHT22;40776;52.880;6.016;2022-07-19T09:13:32;32.10;93.50
54884;DHT22;40776;52.880;6.016;2022-07-19T09:15:58;32.50;93.70
54884;DHT22;40776;52.880;6.016;2022-07-19T09:18:29;32.40;91.90
54884;DHT22;40776;52.880;6.016;2022-07-19T09:20:57;32.50;91.60
54884;DHT22;40776;52.880;6.016;2022-07-19T09:23:25;32.70;92.40
54884;DHT22;40776;52.880;6.016;2022-07-19T09:26:03;33.10;92.30
54884;DHT22;40776;52.880;6.016;2022-07-19T09:28:32;32.90;91.10
54884;DHT22;40776;52.880;6.016;2022-07-19T09:30:58;33.10;91.30
54884;DHT22;40776;52.880;6.016;2022-07-19T09:33:27;33.20;90.90
54884;DHT22;40776;52.880;6.016;2022-07-19T09:35:55;33.50;90.20
54884;DHT22;40776;52.880;6.016;2022-07-19T09:41:07;33.20;88.10
54884;DHT22;40776;52.880;6.016;2022-07-19T09:43:53;33.50;88.90
54884;DHT22;40776;52.880;6.016;2022-07-19T09:46:39;34.20;89.50
54884;DHT22;40776;52.880;6.016;2022-07-19T09:49:16;33.40;88.40
54884;DHT22;40776;52.880;6.016;2022-07-19T09:51:44;33.40;90.00
54884;DHT22;40776;52.880;6.016;2022-07-19T09:54:15;33.70;88.90
54884;DHT22;40776;52.880;6.016;2022-07-19T09:56:42;34.00;88.70
54884;DHT22;40776;52.880;6.016;2022-07-19T09:59:09;34.10;87.30
54884;DHT22;40776;52.880;6.016;2022-07-19T10:01:36;35.60;88.30
54884;DHT22;40776;52.880;6.016;2022-07-19T10:04:13;34.10;86.70
54884;DHT22;40776;52.880;6.016;2022-07-19T10:06:41;34.30;88.10
54884;DHT22;40776;52.880;6.016;2022-07-19T10:09:09;34.20;87.00
54884;DHT22;40776;52.880;6.016;2022-07-19T10:11:35;34.20;85.20
54884;DHT22;40776;52.880;6.016;2022-07-19T10:14:02;34.20;84.90
54884;DHT22;40776;52.880;6.016;2022-07-19T10:16:41;34.50;84.90
54884;DHT22;40776;52.880;6.016;2022-07-19T10:21:48;34.30;85.40
54884;DHT22;40776;52.880;6.016;2022-07-19T10:24:14;34.20;85.40
54884;DHT22;40776;52.880;6.016;2022-07-19T10:26:42;33.30;83.50
54884;DHT22;40776;52.880;6.016;2022-07-19T10:29:15;34.40;84.00
54884;DHT22;40776;52.880;6.016;2022-07-19T10:31:41;34.50;84.50
54884;DHT22;40776;52.880;6.016;2022-07-19T10:34:11;34.60;84.30
54884;DHT22;40776;52.880;6.016;2022-07-19T10:36:49;34.50;83.80
54884;DHT22;40776;52.880;6.016;2022-07-19T10:42:12;34.40;83.80
54884;DHT22;40776;52.880;6.016;2022-07-19T10:50:18;34.80;82.50
54884;DHT22;40776;52.880;6.016;2022-07-19T10:52:44;34.70;84.70
54884;DHT22;40776;52.880;6.016;2022-07-19T11:00:41;35.10;82.70
54884;DHT22;40776;52.880;6.016;2022-07-19T11:05:54;35.00;83.90
54884;DHT22;40776;52.880;6.016;2022-07-19T11:13:29;35.30;83.80
54884;DHT22;40776;52.880;6.016;2022-07-19T11:15:56;35.40;83.60
54884;DHT22;40776;52.880;6.016;2022-07-19T11:18:22;35.60;82.00
54884;DHT22;40776;52.880;6.016;2022-07-19T11:20:47;35.60;81.20
54884;DHT22;40776;52.880;6.016;2022-07-19T11:23:17;35.40;81.80
54884;DHT22;40776;52.880;6.016;2022-07-19T11:25:44;35.50;82.10
54884;DHT22;40776;52.880;6.016;2022-07-19T11:28:24;35.40;81.30
54884;DHT22;40776;52.880;6.016;2022-07-19T11:30:51;35.70;81.90
54884;DHT22;40776;52.880;6.016;2022-07-19T11:33:18;35.40;82.40
54884;DHT22;40776;52.880;6.016;2022-07-19T11:35:58;35.40;82.10
54884;DHT22;40776;52.880;6.016;2022-07-19T11:38:34;35.50;82.30
54884;DHT22;40776;52.880;6.016;2022-07-19T11:40:59;35.70;81.70
54884;DHT22;40776;52.880;6.016;2022-07-19T11:43:25;35.80;81.20
54884;DHT22;40776;52.880;6.016;2022-07-19T11:45:51;35.90;80.40
54884;DHT22;40776;52.880;6.016;2022-07-19T11:48:25;35.90;80.50
54884;DHT22;40776;52.880;6.016;2022-07-19T11:51:20;36.00;80.60
54884;DHT22;40776;52.880;6.016;2022-07-19T11:53:49;36.00;81.00
54884;DHT22;40776;52.880;6.016;2022-07-19T11:56:19;37.10;81.30
54884;DHT22;40776;52.880;6.016;2022-07-19T11:58:45;36.10;79.60
54884;DHT22;40776;52.880;6.016;2022-07-19T12:01:11;36.20;80.80
54884;DHT22;40776;52.880;6.016;2022-07-19T12:03:37;36.30;80.10
54884;DHT22;40776;52.880;6.016;2022-07-19T12:06:07;36.00;79.70
54884;DHT22;40776;52.880;6.016;2022-07-19T12:08:36;36.00;80.00
54884;DHT22;40776;52.880;6.016;2022-07-19T12:11:21;36.40;79.60
54884;DHT22;40776;52.880;6.016;2022-07-19T12:13:48;36.10;78.10
54884;DHT22;40776;52.880;6.016;2022-07-19T12:16:14;36.10;78.70
54884;DHT22;40776;52.880;6.016;2022-07-19T12:18:57;36.20;78.70
54884;DHT22;40776;52.880;6.016;2022-07-19T12:21:28;36.40;79.00
54884;DHT22;40776;52.880;6.016;2022-07-19T12:26:35;36.40;77.80
54884;DHT22;40776;52.880;6.016;2022-07-19T12:29:01;36.50;77.60
54884;DHT22;40776;52.880;6.016;2022-07-19T12:31:27;36.60;77.90
54884;DHT22;40776;52.880;6.016;2022-07-19T12:34:10;36.20;77.90
54884;DHT22;40776;52.880;6.016;2022-07-19T12:36:37;36.60;78.70
54884;DHT22;40776;52.880;6.016;2022-07-19T12:39:03;37.20;78.40
54884;DHT22;40776;52.880;6.016;2022-07-19T12:41:29;36.90;76.80
54884;DHT22;40776;52.880;6.016;2022-07-19T12:43:54;36.90;75.40
54884;DHT22;40776;52.880;6.016;2022-07-19T12:46:20;36.90;75.90
54884;DHT22;40776;52.880;6.016;2022-07-19T12:48:45;36.60;74.30
54884;DHT22;40776;52.880;6.016;2022-07-19T12:51:11;36.70;76.00
54884;DHT22;40776;52.880;6.016;2022-07-19T12:53:37;36.40;75.70
54884;DHT22;40776;52.880;6.016;2022-07-19T12:56:03;36.50;76.00
54884;DHT22;40776;52.880;6.016;2022-07-19T12:58:28;36.40;75.50
54884;DHT22;40776;52.880;6.016;2022-07-19T13:01:12;36.90;75.20
54884;DHT22;40776;52.880;6.016;2022-07-19T13:03:39;36.80;75.20
54884;DHT22;40776;52.880;6.016;2022-07-19T13:06:05;37.00;75.60
54884;DHT22;40776;52.880;6.016;2022-07-19T13:08:31;37.00;75.40
54884;DHT22;40776;52.880;6.016;2022-07-19T13:10:57;36.90;74.80
54884;DHT22;40776;52.880;6.016;2022-07-19T13:13:24;37.20;74.30
54884;DHT22;40776;52.880;6.016;2022-07-19T13:15:50;36.90;74.30
54884;DHT22;40776;52.880;6.016;2022-07-19T13:18:16;37.20;73.90
54884;DHT22;40776;52.880;6.016;2022-07-19T13:20:42;37.10;74.00
54884;DHT22;40776;52.880;6.016;2022-07-19T13:23:09;37.80;73.60
54884;DHT22;40776;52.880;6.016;2022-07-19T13:25:35;37.00;73.10
54884;DHT22;40776;52.880;6.016;2022-07-19T13:28:01;37.00;73.50
54884;DHT22;40776;52.880;6.016;2022-07-19T13:30:27;36.90;72.90
54884;DHT22;40776;52.880;6.016;2022-07-19T13:32:54;37.20;74.00
54884;DHT22;40776;52.880;6.016;2022-07-19T13:35:20;37.30;74.10
54884;DHT22;40776;52.880;6.016;2022-07-19T13:37:46;37.70;73.90
54884;DHT22;40776;52.880;6.016;2022-07-19T13:40:12;37.20;72.70
54884;DHT22;40776;52.880;6.016;2022-07-19T13:42:39;37.30;73.00
54884;DHT22;40776;52.880;6.016;2022-07-19T13:45:05;37.50;73.10
54884;DHT22;40776;52.880;6.016;2022-07-19T13:47:31;37.30;72.00
54884;DHT22;40776;52.880;6.016;2022-07-19T13:49:58;37.40;72.00
54884;DHT22;40776;52.880;6.016;2022-07-19T13:52:24;37.40;71.80
54884;DHT22;40776;52.880;6.016;2022-07-19T13:54:50;37.40;71.90
54884;DHT22;40776;52.880;6.016;2022-07-19T13:57:16;37.50;72.30
54884;DHT22;40776;52.880;6.016;2022-07-19T13:59:42;37.40;73.20
54884;DHT22;40776;52.880;6.016;2022-07-19T14:02:08;37.70;73.50
54884;DHT22;40776;52.880;6.016;2022-07-19T14:04:34;37.90;72.00
54884;DHT22;40776;52.880;6.016;2022-07-19T14:07:00;37.70;71.80
54884;DHT22;40776;52.880;6.016;2022-07-19T14:09:25;37.70;71.40
54884;DHT22;40776;52.880;6.016;2022-07-19T14:11:51;37.80;71.60
54884;DHT22;40776;52.880;6.016;2022-07-19T14:14:17;37.80;71.30
54884;DHT22;40776;52.880;6.016;2022-07-19T14:16:42;37.90;71.10
54884;DHT22;40776;52.880;6.016;2022-07-19T14:19:08;37.80;71.50
54884;DHT22;40776;52.880;6.016;2022-07-19T14:21:34;37.70;71.00
54884;DHT22;40776;52.880;6.016;2022-07-19T14:24:00;37.70;70.70
54884;DHT22;40776;52.880;6.016;2022-07-19T14:26:26;37.80;70.30
54884;DHT22;40776;52.880;6.016;2022-07-19T14:28:52;37.70;71.20
54884;DHT22;40776;52.880;6.016;2022-07-19T14:31:17;37.80;69.70
54884;DHT22;40776;52.880;6.016;2022-07-19T14:33:43;37.90;69.60
54884;DHT22;40776;52.880;6.016;2022-07-19T14:36:09;38.00;69.10
54884;DHT22;40776;52.880;6.016;2022-07-19T14:38:35;37.80;69.50
54884;DHT22;40776;52.880;6.016;2022-07-19T14:41:00;38.00;69.40
54884;DHT22;40776;52.880;6.016;2022-07-19T14:43:26;38.10;68.80
54884;DHT22;40776;52.880;6.016;2022-07-19T14:45:52;38.10;68.90
54884;DHT22;40776;52.880;6.016;2022-07-19T14:48:18;38.30;68.80
54884;DHT22;40776;52.880;6.016;2022-07-19T14:50:43;39.00;69.20
54884;DHT22;40776;52.880;6.016;2022-07-19T14:53:12;39.60;68.40
54884;DHT22;40776;52.880;6.016;2022-07-19T14:55:38;39.80;67.70
54884;DHT22;40776;52.880;6.016;2022-07-19T14:58:03;40.10;66.20
54884;DHT22;40776;52.880;6.016;2022-07-19T15:00:29;40.40;65.30
54884;DHT22;40776;52.880;6.016;2022-07-19T15:02:55;40.70;65.60
54884;DHT22;40776;52.880;6.016;2022-07-19T15:05:20;41.00;64.50
54884;DHT22;40776;52.880;6.016;2022-07-19T15:07:46;40.70;64.40
54884;DHT22;40776;52.880;6.016;2022-07-19T15:10:12;40.70;63.70
54884;DHT22;40776;52.880;6.016;2022-07-19T15:12:37;41.10;64.40
54884;DHT22;40776;52.880;6.016;2022-07-19T15:15:03;41.00;64.50
54884;DHT22;40776;52.880;6.016;2022-07-19T15:17:29;41.20;63.80
54884;DHT22;40776;52.880;6.016;2022-07-19T15:19:54;41.30;63.50
54884;DHT22;40776;52.880;6.016;2022-07-19T15:22:20;41.50;63.00
54884;DHT22;40776;52.880;6.016;2022-07-19T15:24:46;41.50;62.70
54884;DHT22;40776;52.880;6.016;2022-07-19T15:27:12;41.60;62.60
54884;DHT22;40776;52.880;6.016;2022-07-19T15:29:37;41.60;62.90
54884;DHT22;40776;52.880;6.016;2022-07-19T15:32:03;41.70;62.90
54884;DHT22;40776;52.880;6.016;2022-07-19T15:34:29;41.50;61.90
54884;DHT22;40776;52.880;6.016;2022-07-19T15:36:54;42.20;62.30
54884;DHT22;40776;52.880;6.016;2022-07-19T15:39:20;41.60;61.60
54884;DHT22;40776;52.880;6.016;2022-07-19T15:41:46;41.80;62.30
54884;DHT22;40776;52.880;6.016;2022-07-19T15:44:12;41.50;61.70
54884;DHT22;40776;52.880;6.016;2022-07-19T15:46:37;42.10;62.30
54884;DHT22;40776;52.880;6.016;2022-07-19T15:49:04;42.00;62.00
54884;DHT22;40776;52.880;6.016;2022-07-19T15:51:31;42.00;61.20
54884;DHT22;40776;52.880;6.016;2022-07-19T15:53:58;42.00;62.10
54884;DHT22;40776;52.880;6.016;2022-07-19T15:56:24;42.20;61.00
54884;DHT22;40776;52.880;6.016;2022-07-19T15:58:50;42.00;61.10
54884;DHT22;40776;52.880;6.016;2022-07-19T16:01:18;42.20;61.00
54884;DHT22;40776;52.880;6.016;2022-07-19T16:03:45;42.30;59.00
54884;DHT22;40776;52.880;6.016;2022-07-19T16:06:11;42.30;60.00
54884;DHT22;40776;52.880;6.016;2022-07-19T16:08:36;42.00;60.90
54884;DHT22;40776;52.880;6.016;2022-07-19T16:11:02;41.90;61.00
54884;DHT22;40776;52.880;6.016;2022-07-19T16:13:28;41.70;61.10
54884;DHT22;40776;52.880;6.016;2022-07-19T16:15:53;42.00;61.80
54884;DHT22;40776;52.880;6.016;2022-07-19T16:18:19;42.00;62.10
54884;DHT22;40776;52.880;6.016;2022-07-19T16:20:45;42.00;62.90
54884;DHT22;40776;52.880;6.016;2022-07-19T16:23:11;42.10;61.90
54884;DHT22;40776;52.880;6.016;2022-07-19T16:25:36;42.20;60.90
54884;DHT22;40776;52.880;6.016;2022-07-19T16:28:02;42.10;60.70
54884;DHT22;40776;52.880;6.016;2022-07-19T16:30:28;42.10;61.40
54884;DHT22;40776;52.880;6.016;2022-07-19T16:32:54;42.20;61.90
54884;DHT22;40776;52.880;6.016;2022-07-19T16:35:19;42.20;62.20
54884;DHT22;40776;52.880;6.016;2022-07-19T16:37:45;42.30;61.40
54884;DHT22;40776;52.880;6.016;2022-07-19T16:40:12;42.10;61.30
54884;DHT22;40776;52.880;6.016;2022-07-19T16:42:37;42.20;61.00
54884;DHT22;40776;52.880;6.016;2022-07-19T16:45:04;41.90;61.10
54884;DHT22;40776;52.880;6.016;2022-07-19T16:47:30;42.20;60.40
54884;DHT22;40776;52.880;6.016;2022-07-19T16:49:56;42.20;61.10
54884;DHT22;40776;52.880;6.016;2022-07-19T16:52:22;42.00;62.20
54884;DHT22;40776;52.880;6.016;2022-07-19T16:54:47;41.50;62.30
54884;DHT22;40776;52.880;6.016;2022-07-19T16:57:13;41.50;61.90
54884;DHT22;40776;52.880;6.016;2022-07-19T16:59:39;41.80;62.40
54884;DHT22;40776;52.880;6.016;2022-07-19T17:02:04;41.70;62.40
54884;DHT22;40776;52.880;6.016;2022-07-19T17:04:30;41.70;62.40
54884;DHT22;40776;52.880;6.016;2022-07-19T17:06:56;41.60;62.00
54884;DHT22;40776;52.880;6.016;2022-07-19T17:09:22;41.40;62.30
54884;DHT22;40776;52.880;6.016;2022-07-19T17:11:48;41.10;62.10
54884;DHT22;40776;52.880;6.016;2022-07-19T17:14:14;41.20;62.90
54884;DHT22;40776;52.880;6.016;2022-07-19T17:16:41;41.00;62.80
54884;DHT22;40776;52.880;6.016;2022-07-19T17:19:07;41.10;63.50
54884;DHT22;40776;52.880;6.016;2022-07-19T17:21:34;41.10;63.10
54884;DHT22;40776;52.880;6.016;2022-07-19T17:23:59;41.00;62.80
54884;DHT22;40776;52.880;6.016;2022-07-19T17:26:26;40.80;63.70
54884;DHT22;40776;52.880;6.016;2022-07-19T17:28:52;40.10;63.40
54884;DHT22;40776;52.880;6.016;2022-07-19T17:31:18;40.00;64.80
54884;DHT22;40776;52.880;6.016;2022-07-19T17:33:43;40.00;65.70
54884;DHT22;40776;52.880;6.016;2022-07-19T17:36:09;39.80;65.40
54884;DHT22;40776;52.880;6.016;2022-07-19T17:38:35;40.20;65.30
54884;DHT22;40776;52.880;6.016;2022-07-19T17:41:04;41.40;66.70
54884;DHT22;40776;52.880;6.016;2022-07-19T17:43:30;39.90;65.20
54884;DHT22;40776;52.880;6.016;2022-07-19T17:45:55;39.60;65.60
54884;DHT22;40776;52.880;6.016;2022-07-19T17:48:21;39.80;65.90
54884;DHT22;40776;52.880;6.016;2022-07-19T17:50:47;39.50;66.30
54884;DHT22;40776;52.880;6.016;2022-07-19T17:53:13;39.60;67.10
54884;DHT22;40776;52.880;6.016;2022-07-19T17:55:40;39.40;67.90
54884;DHT22;40776;52.880;6.016;2022-07-19T17:58:06;39.00;67.50
54884;DHT22;40776;52.880;6.016;2022-07-19T18:00:32;38.70;68.70
54884;DHT22;40776;52.880;6.016;2022-07-19T18:02:58;38.80;69.00
54884;DHT22;40776;52.880;6.016;2022-07-19T18:05:25;38.60;70.10
54884;DHT22;40776;52.880;6.016;2022-07-19T18:07:52;38.20;71.30
54884;DHT22;40776;52.880;6.016;2022-07-19T18:10:20;37.70;70.70
54884;DHT22;40776;52.880;6.016;2022-07-19T18:12:47;37.20;71.70
54884;DHT22;40776;52.880;6.016;2022-07-19T18:15:18;36.50;71.00
54884;DHT22;40776;52.880;6.016;2022-07-19T18:17:45;36.20;72.40
54884;DHT22;40776;52.880;6.016;2022-07-19T18:20:12;35.70;74.60
54884;DHT22;40776;52.880;6.016;2022-07-19T18:22:38;35.50;75.30
54884;DHT22;40776;52.880;6.016;2022-07-19T18:25:04;34.70;75.70
54884;DHT22;40776;52.880;6.016;2022-07-19T18:27:30;34.60;76.70
54884;DHT22;40776;52.880;6.016;2022-07-19T18:29:56;34.40;77.90
54884;DHT22;40776;52.880;6.016;2022-07-19T18:32:22;34.10;77.90
54884;DHT22;40776;52.880;6.016;2022-07-19T18:34:48;33.90;78.50
54884;DHT22;40776;52.880;6.016;2022-07-19T18:37:13;33.70;78.90
54884;DHT22;40776;52.880;6.016;2022-07-19T18:39:40;33.70;78.80
54884;DHT22;40776;52.880;6.016;2022-07-19T18:42:07;33.10;79.70
54884;DHT22;40776;52.880;6.016;2022-07-19T18:44:34;33.10;80.50
54884;DHT22;40776;52.880;6.016;2022-07-19T18:47:02;33.40;80.60
54884;DHT22;40776;52.880;6.016;2022-07-19T18:49:29;32.60;80.60
54884;DHT22;40776;52.880;6.016;2022-07-19T18:51:54;33.00;81.90
54884;DHT22;40776;52.880;6.016;2022-07-19T18:54:20;32.70;83.40
54884;DHT22;40776;52.880;6.016;2022-07-19T18:56:46;32.70;84.00
54884;DHT22;40776;52.880;6.016;2022-07-19T18:59:12;32.10;84.80
54884;DHT22;40776;52.880;6.016;2022-07-19T19:01:39;32.20;85.80
54884;DHT22;40776;52.880;6.016;2022-07-19T19:04:05;31.70;85.20
54884;DHT22;40776;52.880;6.016;2022-07-19T19:06:31;30.90;84.60
54884;DHT22;40776;52.880;6.016;2022-07-19T19:09:02;31.70;86.80
54884;DHT22;40776;52.880;6.016;2022-07-19T19:11:29;31.40;85.80
54884;DHT22;40776;52.880;6.016;2022-07-19T19:13:55;31.00;89.40
54884;DHT22;40776;52.880;6.016;2022-07-19T19:16:20;30.70;90.40
54884;DHT22;40776;52.880;6.016;2022-07-19T19:18:46;30.50;90.10
54884;DHT22;40776;52.880;6.016;2022-07-19T19:21:12;30.90;89.30
54884;DHT22;40776;52.880;6.016;2022-07-19T19:23:37;30.40;90.60
54884;DHT22;40776;52.880;6.016;2022-07-19T19:26:03;30.00;90.90
54884;DHT22;40776;52.880;6.016;2022-07-19T19:28:29;29.90;91.10
54884;DHT22;40776;52.880;6.016;2022-07-19T19:33:21;29.80;92.10
54884;DHT22;40776;52.880;6.016;2022-07-19T19:35:49;29.50;90.90
54884;DHT22;40776;52.880;6.016;2022-07-19T19:38:16;29.20;91.90
54884;DHT22;40776;52.880;6.016;2022-07-19T19:40:41;29.30;92.30
54884;DHT22;40776;52.880;6.016;2022-07-19T19:43:07;29.10;92.20
54884;DHT22;40776;52.880;6.016;2022-07-19T19:45:32;29.10;92.30
54884;DHT22;40776;52.880;6.016;2022-07-19T19:47:58;29.00;92.40
54884;DHT22;40776;52.880;6.016;2022-07-19T19:57:42;28.50;92.90
54884;DHT22;40776;52.880;6.016;2022-07-19T20:00:09;28.40;93.00
54884;DHT22;40776;52.880;6.016;2022-07-19T20:05:01;28.10;93.40
54884;DHT22;40776;52.880;6.016;2022-07-19T20:07:26;28.00;93.30
54884;DHT22;40776;52.880;6.016;2022-07-19T20:14:44;27.80;94.20
54884;DHT22;40776;52.880;6.016;2022-07-19T20:17:13;27.60;93.90
54884;DHT22;40776;52.880;6.016;2022-07-19T20:39:08;26.70;93.40
54884;DHT22;40776;52.880;6.016;2022-07-19T20:56:11;26.40;93.90
54884;DHT22;40776;52.880;6.016;2022-07-19T21:35:08;26.10;94.70
54884;DHT22;40776;52.880;6.016;2022-07-19T21:37:34;26.10;94.70
54884;DHT22;40776;52.880;6.016;2022-07-19T22:50:38;25.00;93.50
